Olympic Valley, California
Current Conditions -  °F | °C
As of 4:15 AM on Monday 24 Nov 2014 (Local Time) from KTRK Reporting Station
Haze Haze  
Wind Chill: 19°   Ceiling: Unl
Heat Index: 19°   Visibility: 3mi
Dew Point: 18°   Wind: 0mph
Humidity: 93%   Direction: NA
Pressure: 30.39"   Gusts: NA
Location:  39.18°N, 120.22°W
Report Text: KTRK 241215Z AUTO 00000KT 3SM BR SCT002 M07/M08 A3039 RMK AO2
Loading
Personal Weather Stations






























Interactive Weather Map New forecast layout! Learn more

10-Day Weather Forecast

Advertisements
Track Severe Weather on mobile